Blue Image — 3EXO5 — position and weather

sailwx.info

Track history (hours):
 
Tides and Currents Weather Stations Pressure Air Temp Water Temp Dewpoint Dewpoint Depression Visibility Wind Speed Wind Dir Waves Ship Positions

Blue Image

Last reported at 2014-Oct-18 20:33 UTC. Time now 2014-Oct-20 21:12 UTC.
Position N 49°40' W 000°31'.

Length 160 m; draft 10.2 m.

Type: Cargo ship. MMSI: 351960000.

Date/timePositionNaut miles runAvg speedWind from/ knotsBaromVisibWave heightAir tempDewpointWater temp
2014-Oct-18 20:33N 49°40' W 000°31'1212.3
2014-Oct-18 19:33N 49°33' W 000°16'1110.8
2014-Oct-18 18:33N 49°28' W 000°01'1110.6
2014-Oct-18 17:34N 49°26' E 000°15'11 9.1
2014-Oct-18 16:23N 49°29' E 000°31'6 6.7
2014-Oct-18 15:34N 49°27' E 000°39'1 0.0
2014-Oct-16 13:33N 49°27' E 000°39'9 8.9
2014-Oct-16 12:33N 49°27' E 000°26'1111.0
2014-Oct-16 11:33N 49°26' E 000°09'10 9.5
2014-Oct-16 10:33N 49°29' W 000°05'0 0.2
2014-Oct-16 09:27N 49°29' W 000°06'0 0.0
2014-Oct-16 08:33N 49°29' W 000°06'0 0.0
2014-Oct-16 07:33N 49°29' W 000°06'0 0.0
2014-Oct-16 06:27N 49°29' W 000°06'0 0.0
2014-Oct-16 05:33N 49°29' W 000°06'0 0.0
2014-Oct-16 04:33N 49°29' W 000°06'0 0.0
2014-Oct-16 03:30N 49°29' W 000°06'0 0.0
2014-Oct-16 02:33N 49°29' W 000°06'0 0.0
2014-Oct-16 01:33N 49°29' W 000°06'0 0.0
2014-Oct-16 00:27N 49°29' W 000°06'0 0.0
2014-Oct-15 23:30N 49°29' W 000°06'0 0.1
2014-Oct-15 22:30N 49°29' W 000°06'0 0.0
2014-Oct-15 21:33N 49°29' W 000°06'0 0.0
2014-Oct-15 20:30N 49°29' W 000°06'0 0.0
2014-Oct-15 19:33N 49°29' W 000°06'0 0.0
2014-Oct-15 18:33N 49°29' W 000°06'0 0.0
2014-Oct-15 17:24N 49°29' W 000°06'0 0.0
2014-Oct-15 16:33N 49°29' W 000°06'0 0.0
2014-Oct-15 15:33N 49°29' W 000°06'0 0.0
2014-Oct-15 14:33N 49°29' W 000°06'6 6.2
2014-Oct-15 13:33N 49°33' W 000°12'5711.5
2014-Oct-15 08:33N 50°30' E 000°04'1414.4
2014-Oct-15 07:33N 50°35' E 000°25'1414.0
2014-Oct-15 06:33N 50°42' E 000°44'2512.8
2014-Oct-15 04:34N 50°59' E 001°15'1111.2
2014-Oct-15 03:33N 51°05' E 001°29'1212.1
2014-Oct-15 02:33N 51°13' E 001°45'1413.6
2014-Oct-15 01:33N 51°24' E 001°56'1514.5
2014-Oct-15 00:33N 51°36' E 002°10'1514.8
2014-Oct-14 23:33N 51°47' E 002°25'3913.2
2014-Oct-14 20:33N 52°26' E 002°18'1312.4
2014-Oct-14 19:33N 52°39' E 002°14'1211.8
2014-Oct-14 18:29N 52°51' E 002°10'1010.8
2014-Oct-14 17:33N 52°57' E 001°56'1211.6
2014-Oct-14 16:33N 53°02' E 001°39'1212.2
2014-Oct-14 15:33N 53°13' E 001°29'81 6.2
2014-Oct-14 02:33N 54°31' E 000°53'6 6.1
2014-Oct-14 01:33N 54°25' E 000°49'7 6.6
2014-Oct-14 00:33N 54°19' E 000°46'6 5.9
2014-Oct-13 23:33N 54°13' E 000°44'7 6.9
2014-Oct-13 22:33N 54°06' E 000°41'7 7.2
2014-Oct-13 21:33N 53°59' E 000°39'7 7.2
2014-Oct-13 20:33N 53°52' E 000°35'7 7.2
2014-Oct-13 19:33N 53°45' E 000°33'5 5.5
2014-Oct-13 18:33N 53°40' E 000°30'6 5.5
2014-Oct-13 17:33N 53°36' E 000°24'1 0.7
2014-Oct-13 16:32N 53°35' E 000°24'0 0.2
2014-Oct-13 15:26N 53°35' E 000°24'0 0.0
2014-Oct-13 14:29N 53°35' E 000°24'0 0.0
2014-Oct-13 13:32N 53°35' E 000°24'0 0.0
2014-Oct-13 12:32N 53°35' E 000°24'0 0.1
2014-Oct-13 11:32N 53°35' E 000°24'0 0.0
2014-Oct-13 10:29N 53°35' E 000°24'0 0.1
2014-Oct-13 09:32N 53°35' E 000°24'0 0.0
2014-Oct-13 08:32N 53°35' E 000°24'0 0.0
2014-Oct-13 07:32N 53°35' E 000°24'0 0.0
2014-Oct-13 06:26N 53°35' E 000°24'0 0.0
2014-Oct-13 05:32N 53°35' E 000°24'0 0.0
2014-Oct-13 04:32N 53°35' E 000°24'0 0.0
2014-Oct-13 03:26N 53°35' E 000°24'0 0.1
2014-Oct-13 02:29N 53°35' E 000°24'0 0.1
2014-Oct-13 01:32N 53°35' E 000°24'0 0.0
2014-Oct-13 00:32N 53°36' E 000°24'0 0.0
2014-Oct-12 23:29N 53°36' E 000°24'0 0.1
2014-Oct-12 22:32N 53°35' E 000°24'0 0.0
2014-Oct-12 21:32N 53°35' E 000°24'0 0.0
2014-Oct-12 20:32N 53°35' E 000°24'0 0.0
2014-Oct-12 19:26N 53°35' E 000°24'0 0.0
2014-Oct-12 18:23N 53°35' E 000°24'0 0.0
2014-Oct-12 17:29N 53°35' E 000°24'0 0.0
2014-Oct-12 16:32N 53°35' E 000°24'0 0.0
2014-Oct-12 15:29N 53°35' E 000°24'0 0.2
2014-Oct-12 14:32N 53°36' E 000°24'0 0.0
2014-Oct-12 13:32N 53°36' E 000°24'0 0.0
2014-Oct-12 12:32N 53°36' E 000°24'0 0.0
2014-Oct-12 11:29N 53°36' E 000°24'0 0.0
2014-Oct-12 10:29N 53°36' E 000°25'0 0.1
2014-Oct-12 09:32N 53°35' E 000°25'0 0.1
2014-Oct-12 08:29N 53°35' E 000°25'0 0.0
2014-Oct-12 07:32N 53°35' E 000°25'0 0.0
2014-Oct-12 06:26N 53°35' E 000°25'0 0.0
2014-Oct-12 05:32N 53°35' E 000°25'0 0.0
2014-Oct-12 04:29N 53°35' E 000°25'0 0.0
2014-Oct-12 03:32N 53°35' E 000°25'0 0.1
2014-Oct-12 02:32N 53°36' E 000°25'0 0.1
2014-Oct-12 01:23N 53°36' E 000°25'0 0.0
2014-Oct-12 00:26N 53°36' E 000°24'0 0.0
2014-Oct-11 23:11N 53°36' E 000°25'0 0.0
2014-Oct-11 22:29N 53°36' E 000°25'0 0.0
2014-Oct-11 21:32N 53°36' E 000°25'0 0.1
2014-Oct-11 20:23N 53°35' E 000°25'0 0.1
2014-Oct-11 19:23N 53°35' E 000°25'0 0.0
2014-Oct-11 18:26N 53°35' E 000°24'0 0.0
2014-Oct-11 17:32N 53°35' E 000°24'0 0.0
2014-Oct-11 16:32N 53°35' E 000°24'0 0.0
2014-Oct-11 15:32N 53°35' E 000°24'0 0.2
2014-Oct-11 14:29N 53°36' E 000°24'0 0.0
2014-Oct-11 13:26N 53°36' E 000°24'0 0.0
2014-Oct-11 12:32N 53°36' E 000°24'0 0.0
2014-Oct-11 11:23N 53°36' E 000°24'0 0.0
2014-Oct-11 10:26N 53°36' E 000°24'0 0.1
2014-Oct-11 09:26N 53°36' E 000°24'0 0.0
2014-Oct-11 08:29N 53°36' E 000°24'0 0.2
2014-Oct-11 07:32N 53°35' E 000°25'0 0.0
2014-Oct-11 06:32N 53°35' E 000°24'0 0.0
2014-Oct-11 05:26N 53°35' E 000°24'0 0.0
2014-Oct-11 04:32N 53°35' E 000°24'0 0.0
2014-Oct-11 03:29N 53°35' E 000°24'0 0.2
2014-Oct-11 02:32N 53°36' E 000°25'0 0.0
2014-Oct-11 01:32N 53°36' E 000°24'0 0.0
2014-Oct-11 00:23N 53°36' E 000°24'0 0.0
2014-Oct-10 23:26N 53°36' E 000°24'0 0.0
2014-Oct-10 22:17N 53°36' E 000°24'0 0.0
2014-Oct-10 21:32N 53°36' E 000°24'0 0.1
2014-Oct-10 20:32N 53°36' E 000°24'0 0.2
2014-Oct-10 19:26N 53°35' E 000°25'0 0.0
2014-Oct-10 18:29N 53°35' E 000°24'0 0.0
2014-Oct-10 17:32N 53°35' E 000°24'0 0.0
2014-Oct-10 16:32N 53°35' E 000°24'0 0.0
2014-Oct-10 15:23N 53°35' E 000°24'0 0.2
2014-Oct-10 14:32N 53°36' E 000°25'0 0.0
2014-Oct-10 13:29N 53°36' E 000°25'0 0.0
2014-Oct-10 12:32N 53°36' E 000°24'0 0.0
2014-Oct-10 11:23N 53°36' E 000°24'0 0.0
2014-Oct-10 10:32N 53°36' E 000°24'0 0.0
2014-Oct-10 09:26N 53°36' E 000°25'0 0.0
2014-Oct-10 08:32N 53°36' E 000°25'0 0.0
2014-Oct-10 07:26N 53°36' E 000°25'0 0.1
2014-Oct-10 06:26N 53°36' E 000°25'0 0.1
2014-Oct-10 05:26N 53°35' E 000°25'0 0.0
2014-Oct-10 04:26N 53°35' E 000°25'0 0.0
2014-Oct-10 03:29N 53°35' E 000°25'0 0.1
2014-Oct-10 02:32N 53°36' E 000°25'0 0.1
2014-Oct-10 01:26N 53°36' E 000°25'0 0.0
2014-Oct-10 00:20N 53°36' E 000°25'0 0.0
2014-Oct-09 23:32N 53°36' E 000°25'0 0.0
2014-Oct-09 22:20N 53°36' E 000°25'0 0.0
2014-Oct-09 21:32N 53°36' E 000°25'0 0.0
2014-Oct-09 20:32N 53°36' E 000°25'0 0.0
2014-Oct-09 19:29N 53°36' E 000°24'0 0.1
2014-Oct-09 18:32N 53°36' E 000°25'0 0.2
2014-Oct-09 17:32N 53°35' E 000°25'0 0.0
2014-Oct-09 16:26N 53°35' E 000°25'0 0.0
2014-Oct-09 15:29N 53°35' E 000°25'0 0.1
2014-Oct-09 14:29N 53°36' E 000°25'0 0.1
2014-Oct-09 13:26N 53°36' E 000°25'0 0.0
2014-Oct-09 12:32N 53°36' E 000°24'0 0.0
2014-Oct-09 11:32N 53°36' E 000°24'0 0.0
2014-Oct-09 10:26N 53°36' E 000°24'0 0.0
2014-Oct-09 09:11N 53°36' E 000°24'0 0.0
2014-Oct-09 08:32N 53°36' E 000°24'0 0.0
2014-Oct-09 07:29N 53°36' E 000°24'0 0.0
2014-Oct-09 06:29N 53°36' E 000°24'0 0.1
2014-Oct-09 05:23N 53°36' E 000°25'0 0.1
2014-Oct-09 04:26N 53°35' E 000°24'0 0.0
2014-Oct-09 03:32N 53°35' E 000°24'0 0.0
2014-Oct-09 02:29N 53°35' E 000°24'0 0.2
2014-Oct-09 01:32N 53°36' E 000°25'0 0.0
2014-Oct-09 00:29N 53°36' E 000°25'0 0.0
2014-Oct-08 23:23N 53°36' E 000°24'0 0.0
2014-Oct-08 22:29N 53°36' E 000°24'0 0.0
2014-Oct-08 21:29N 53°36' E 000°24'  
Track history (hours):
 
Tides and Currents Weather Stations Pressure Air Temp Water Temp Dewpoint Dewpoint Depression Visibility Wind Speed Wind Dir Waves Ship Positions

Blue Image

Last reported at 2014-Oct-18 20:33 UTC. Time now 2014-Oct-20 21:12 UTC.
Position N 49°40' W 000°31'.

Length 160 m; draft 10.2 m.

Type: Cargo ship. MMSI: 351960000.

Date/timePositionNaut miles runAvg speedWind from/ knotsBaromVisibWave heightAir tempDewpointWater temp
2014-Oct-18 20:33N 49°40' W 000°31'1212.3
2014-Oct-18 19:33N 49°33' W 000°16'1110.8
2014-Oct-18 18:33N 49°28' W 000°01'1110.6
2014-Oct-18 17:34N 49°26' E 000°15'11 9.1
2014-Oct-18 16:23N 49°29' E 000°31'6 6.7
2014-Oct-18 15:34N 49°27' E 000°39'1 0.0
2014-Oct-16 13:33N 49°27' E 000°39'9 8.9
2014-Oct-16 12:33N 49°27' E 000°26'1111.0
2014-Oct-16 11:33N 49°26' E 000°09'10 9.5
2014-Oct-16 10:33N 49°29' W 000°05'0 0.2
2014-Oct-16 09:27N 49°29' W 000°06'0 0.0
2014-Oct-16 08:33N 49°29' W 000°06'0 0.0
2014-Oct-16 07:33N 49°29' W 000°06'0 0.0
2014-Oct-16 06:27N 49°29' W 000°06'0 0.0
2014-Oct-16 05:33N 49°29' W 000°06'0 0.0
2014-Oct-16 04:33N 49°29' W 000°06'0 0.0
2014-Oct-16 03:30N 49°29' W 000°06'0 0.0
2014-Oct-16 02:33N 49°29' W 000°06'0 0.0
2014-Oct-16 01:33N 49°29' W 000°06'0 0.0
2014-Oct-16 00:27N 49°29' W 000°06'0 0.0
2014-Oct-15 23:30N 49°29' W 000°06'0 0.1
2014-Oct-15 22:30N 49°29' W 000°06'0 0.0
2014-Oct-15 21:33N 49°29' W 000°06'0 0.0
2014-Oct-15 20:30N 49°29' W 000°06'0 0.0
2014-Oct-15 19:33N 49°29' W 000°06'0 0.0
2014-Oct-15 18:33N 49°29' W 000°06'0 0.0
2014-Oct-15 17:24N 49°29' W 000°06'0 0.0
2014-Oct-15 16:33N 49°29' W 000°06'0 0.0
2014-Oct-15 15:33N 49°29' W 000°06'0 0.0
2014-Oct-15 14:33N 49°29' W 000°06'6 6.2
2014-Oct-15 13:33N 49°33' W 000°12'5711.5
2014-Oct-15 08:33N 50°30' E 000°04'1414.4
2014-Oct-15 07:33N 50°35' E 000°25'1414.0
2014-Oct-15 06:33N 50°42' E 000°44'2512.8
2014-Oct-15 04:34N 50°59' E 001°15'1111.2
2014-Oct-15 03:33N 51°05' E 001°29'1212.1
2014-Oct-15 02:33N 51°13' E 001°45'1413.6
2014-Oct-15 01:33N 51°24' E 001°56'1514.5
2014-Oct-15 00:33N 51°36' E 002°10'1514.8
2014-Oct-14 23:33N 51°47' E 002°25'3913.2
2014-Oct-14 20:33N 52°26' E 002°18'1312.4
2014-Oct-14 19:33N 52°39' E 002°14'1211.8
2014-Oct-14 18:29N 52°51' E 002°10'1010.8
2014-Oct-14 17:33N 52°57' E 001°56'1211.6
2014-Oct-14 16:33N 53°02' E 001°39'1212.2
2014-Oct-14 15:33N 53°13' E 001°29'81 6.2
2014-Oct-14 02:33N 54°31' E 000°53'6 6.1
2014-Oct-14 01:33N 54°25' E 000°49'7 6.6
2014-Oct-14 00:33N 54°19' E 000°46'6 5.9
2014-Oct-13 23:33N 54°13' E 000°44'7 6.9
2014-Oct-13 22:33N 54°06' E 000°41'7 7.2
2014-Oct-13 21:33N 53°59' E 000°39'7 7.2
2014-Oct-13 20:33N 53°52' E 000°35'7 7.2
2014-Oct-13 19:33N 53°45' E 000°33'5 5.5
2014-Oct-13 18:33N 53°40' E 000°30'6 5.5
2014-Oct-13 17:33N 53°36' E 000°24'1 0.7
2014-Oct-13 16:32N 53°35' E 000°24'0 0.2
2014-Oct-13 15:26N 53°35' E 000°24'0 0.0
2014-Oct-13 14:29N 53°35' E 000°24'0 0.0
2014-Oct-13 13:32N 53°35' E 000°24'0 0.0
2014-Oct-13 12:32N 53°35' E 000°24'0 0.1
2014-Oct-13 11:32N 53°35' E 000°24'0 0.0
2014-Oct-13 10:29N 53°35' E 000°24'0 0.1
2014-Oct-13 09:32N 53°35' E 000°24'0 0.0
2014-Oct-13 08:32N 53°35' E 000°24'0 0.0
2014-Oct-13 07:32N 53°35' E 000°24'0 0.0
2014-Oct-13 06:26N 53°35' E 000°24'0 0.0
2014-Oct-13 05:32N 53°35' E 000°24'0 0.0
2014-Oct-13 04:32N 53°35' E 000°24'0 0.0
2014-Oct-13 03:26N 53°35' E 000°24'0 0.1
2014-Oct-13 02:29N 53°35' E 000°24'0 0.1
2014-Oct-13 01:32N 53°35' E 000°24'0 0.0
2014-Oct-13 00:32N 53°36' E 000°24'0 0.0
2014-Oct-12 23:29N 53°36' E 000°24'0 0.1
2014-Oct-12 22:32N 53°35' E 000°24'0 0.0
2014-Oct-12 21:32N 53°35' E 000°24'0 0.0
2014-Oct-12 20:32N 53°35' E 000°24'0 0.0
2014-Oct-12 19:26N 53°35' E 000°24'0 0.0
2014-Oct-12 18:23N 53°35' E 000°24'0 0.0
2014-Oct-12 17:29N 53°35' E 000°24'0 0.0
2014-Oct-12 16:32N 53°35' E 000°24'0 0.0
2014-Oct-12 15:29N 53°35' E 000°24'0 0.2
2014-Oct-12 14:32N 53°36' E 000°24'0 0.0
2014-Oct-12 13:32N 53°36' E 000°24'0 0.0
2014-Oct-12 12:32N 53°36' E 000°24'0 0.0
2014-Oct-12 11:29N 53°36' E 000°24'0 0.0
2014-Oct-12 10:29N 53°36' E 000°25'0 0.1
2014-Oct-12 09:32N 53°35' E 000°25'0 0.1
2014-Oct-12 08:29N 53°35' E 000°25'0 0.0
2014-Oct-12 07:32N 53°35' E 000°25'0 0.0
2014-Oct-12 06:26N 53°35' E 000°25'0 0.0
2014-Oct-12 05:32N 53°35' E 000°25'0 0.0
2014-Oct-12 04:29N 53°35' E 000°25'0 0.0
2014-Oct-12 03:32N 53°35' E 000°25'0 0.1
2014-Oct-12 02:32N 53°36' E 000°25'0 0.1
2014-Oct-12 01:23N 53°36' E 000°25'0 0.0
2014-Oct-12 00:26N 53°36' E 000°24'0 0.0
2014-Oct-11 23:11N 53°36' E 000°25'0 0.0
2014-Oct-11 22:29N 53°36' E 000°25'0 0.0
2014-Oct-11 21:32N 53°36' E 000°25'0 0.1
2014-Oct-11 20:23N 53°35' E 000°25'0 0.1
2014-Oct-11 19:23N 53°35' E 000°25'0 0.0
2014-Oct-11 18:26N 53°35' E 000°24'0 0.0
2014-Oct-11 17:32N 53°35' E 000°24'0 0.0
2014-Oct-11 16:32N 53°35' E 000°24'0 0.0
2014-Oct-11 15:32N 53°35' E 000°24'0 0.2
2014-Oct-11 14:29N 53°36' E 000°24'0 0.0
2014-Oct-11 13:26N 53°36' E 000°24'0 0.0
2014-Oct-11 12:32N 53°36' E 000°24'0 0.0
2014-Oct-11 11:23N 53°36' E 000°24'0 0.0
2014-Oct-11 10:26N 53°36' E 000°24'0 0.1
2014-Oct-11 09:26N 53°36' E 000°24'0 0.0
2014-Oct-11 08:29N 53°36' E 000°24'0 0.2
2014-Oct-11 07:32N 53°35' E 000°25'0 0.0
2014-Oct-11 06:32N 53°35' E 000°24'0 0.0
2014-Oct-11 05:26N 53°35' E 000°24'0 0.0
2014-Oct-11 04:32N 53°35' E 000°24'0 0.0
2014-Oct-11 03:29N 53°35' E 000°24'0 0.2
2014-Oct-11 02:32N 53°36' E 000°25'0 0.0
2014-Oct-11 01:32N 53°36' E 000°24'0 0.0
2014-Oct-11 00:23N 53°36' E 000°24'0 0.0
2014-Oct-10 23:26N 53°36' E 000°24'0 0.0
2014-Oct-10 22:17N 53°36' E 000°24'0 0.0
2014-Oct-10 21:32N 53°36' E 000°24'0 0.1
2014-Oct-10 20:32N 53°36' E 000°24'0 0.2
2014-Oct-10 19:26N 53°35' E 000°25'0 0.0
2014-Oct-10 18:29N 53°35' E 000°24'0 0.0
2014-Oct-10 17:32N 53°35' E 000°24'0 0.0
2014-Oct-10 16:32N 53°35' E 000°24'0 0.0
2014-Oct-10 15:23N 53°35' E 000°24'0 0.2
2014-Oct-10 14:32N 53°36' E 000°25'0 0.0
2014-Oct-10 13:29N 53°36' E 000°25'0 0.0
2014-Oct-10 12:32N 53°36' E 000°24'0 0.0
2014-Oct-10 11:23N 53°36' E 000°24'0 0.0
2014-Oct-10 10:32N 53°36' E 000°24'0 0.0
2014-Oct-10 09:26N 53°36' E 000°25'0 0.0
2014-Oct-10 08:32N 53°36' E 000°25'0 0.0
2014-Oct-10 07:26N 53°36' E 000°25'0 0.1
2014-Oct-10 06:26N 53°36' E 000°25'0 0.1
2014-Oct-10 05:26N 53°35' E 000°25'0 0.0
2014-Oct-10 04:26N 53°35' E 000°25'0 0.0
2014-Oct-10 03:29N 53°35' E 000°25'0 0.1
2014-Oct-10 02:32N 53°36' E 000°25'0 0.1
2014-Oct-10 01:26N 53°36' E 000°25'0 0.0
2014-Oct-10 00:20N 53°36' E 000°25'0 0.0
2014-Oct-09 23:32N 53°36' E 000°25'0 0.0
2014-Oct-09 22:20N 53°36' E 000°25'0 0.0
2014-Oct-09 21:32N 53°36' E 000°25'0 0.0
2014-Oct-09 20:32N 53°36' E 000°25'0 0.0
2014-Oct-09 19:29N 53°36' E 000°24'0 0.1
2014-Oct-09 18:32N 53°36' E 000°25'0 0.2
2014-Oct-09 17:32N 53°35' E 000°25'0 0.0
2014-Oct-09 16:26N 53°35' E 000°25'0 0.0
2014-Oct-09 15:29N 53°35' E 000°25'0 0.1
2014-Oct-09 14:29N 53°36' E 000°25'0 0.1
2014-Oct-09 13:26N 53°36' E 000°25'0 0.0
2014-Oct-09 12:32N 53°36' E 000°24'0 0.0
2014-Oct-09 11:32N 53°36' E 000°24'0 0.0
2014-Oct-09 10:26N 53°36' E 000°24'0 0.0
2014-Oct-09 09:11N 53°36' E 000°24'0 0.0
2014-Oct-09 08:32N 53°36' E 000°24'0 0.0
2014-Oct-09 07:29N 53°36' E 000°24'0 0.0
2014-Oct-09 06:29N 53°36' E 000°24'0 0.1
2014-Oct-09 05:23N 53°36' E 000°25'0 0.1
2014-Oct-09 04:26N 53°35' E 000°24'0 0.0
2014-Oct-09 03:32N 53°35' E 000°24'0 0.0
2014-Oct-09 02:29N 53°35' E 000°24'0 0.2
2014-Oct-09 01:32N 53°36' E 000°25'0 0.0
2014-Oct-09 00:29N 53°36' E 000°25'0 0.0
2014-Oct-08 23:23N 53°36' E 000°24'0 0.0
2014-Oct-08 22:29N 53°36' E 000°24'0 0.0
2014-Oct-08 21:29N 53°36' E 000°24'  

Dump ship's entire track history